createdAt,value
2022-09-07T00:01:18.833Z,15.12
2022-09-07T00:03:47.057Z,15.09
2022-09-07T00:06:15.375Z,15.05
2022-09-07T00:08:43.887Z,15.02
2022-09-07T00:11:15.164Z,14.99
2022-09-07T00:13:45.884Z,14.96
2022-09-07T00:16:22.630Z,14.94
2022-09-07T00:18:57.240Z,14.92
2022-09-07T00:21:26.091Z,14.90
2022-09-07T00:23:54.866Z,14.89
2022-09-07T00:26:25.960Z,14.88
2022-09-07T00:28:58.132Z,14.86
2022-09-07T00:31:27.396Z,14.83
2022-09-07T00:33:59.044Z,14.81
2022-09-07T00:36:27.412Z,14.78
2022-09-07T00:38:55.658Z,14.75
2022-09-07T00:41:24.798Z,14.71
2022-09-07T00:43:56.029Z,14.69
2022-09-07T00:46:25.915Z,14.65
2022-09-07T00:49:08.378Z,14.63
2022-09-07T00:51:42.364Z,14.60
2022-09-07T00:54:17.762Z,14.56
2022-09-07T00:56:49.331Z,14.53
2022-09-07T00:59:22.115Z,14.48
2022-09-07T01:01:52.079Z,14.45
2022-09-07T01:04:22.361Z,14.43
2022-09-07T01:06:52.609Z,14.41
2022-09-07T01:09:24.099Z,14.39
2022-09-07T01:11:54.287Z,14.38
2022-09-07T01:14:27.018Z,14.37
2022-09-07T01:17:10.857Z,14.35
2022-09-07T01:20:28.452Z,14.30
2022-09-07T01:23:38.273Z,14.25
2022-09-07T01:26:37.216Z,14.23
2022-09-07T01:29:46.949Z,14.22
2022-09-07T01:32:27.899Z,14.21
2022-09-07T01:34:56.968Z,14.20
2022-09-07T01:37:43.043Z,14.18
2022-09-07T01:40:23.683Z,14.17
2022-09-07T01:43:02.565Z,14.16
2022-09-07T01:45:36.262Z,14.17
2022-09-07T01:48:11.538Z,14.17
2022-09-07T01:51:02.464Z,14.15
2022-09-07T01:53:45.749Z,14.14
2022-09-07T01:56:36.683Z,14.14
2022-09-07T01:59:08.963Z,14.12
2022-09-07T02:01:55.329Z,14.09
2022-09-07T02:04:56.461Z,14.07
2022-09-07T02:08:00.594Z,14.06
2022-09-07T02:10:39.198Z,14.04
2022-09-07T02:13:16.653Z,14.04
2022-09-07T02:15:58.601Z,14.03
2022-09-07T02:18:30.951Z,14.04
2022-09-07T02:21:02.079Z,14.04
2022-09-07T02:23:37.394Z,14.05
2022-09-07T02:26:16.130Z,14.05
2022-09-07T02:28:44.227Z,14.05
2022-09-07T02:31:13.111Z,14.04
2022-09-07T02:33:42.752Z,14.03
2022-09-07T02:36:16.362Z,14.01
2022-09-07T02:38:44.446Z,13.96
2022-09-07T02:41:52.851Z,13.91
2022-09-07T02:44:26.496Z,13.91
2022-09-07T02:47:01.832Z,13.91
2022-09-07T02:49:55.670Z,13.92
2022-09-07T02:53:00.660Z,13.92
2022-09-07T02:56:07.189Z,13.91
2022-09-07T02:59:11.608Z,13.90
2022-09-07T03:02:35.029Z,13.86
2022-09-07T03:05:25.232Z,13.82
2022-09-07T03:08:12.913Z,13.79
2022-09-07T03:10:43.191Z,13.78
2022-09-07T03:13:23.384Z,13.78
2022-09-07T03:15:55.760Z,13.78
2022-09-07T03:18:27.218Z,13.77
2022-09-07T03:20:55.971Z,13.75
2022-09-07T03:23:24.083Z,13.74
2022-09-07T03:25:52.998Z,13.72
2022-09-07T03:28:21.927Z,13.71
2022-09-07T03:30:50.355Z,13.68
2022-09-07T03:33:19.570Z,13.65
2022-09-07T03:35:58.114Z,13.63
2022-09-07T03:38:28.114Z,13.59
2022-09-07T03:41:05.395Z,13.54
2022-09-07T03:43:34.176Z,13.51
2022-09-07T03:46:05.626Z,13.49
2022-09-07T03:48:35.708Z,13.46
2022-09-07T03:51:10.572Z,13.43
2022-09-07T03:53:41.904Z,13.41
2022-09-07T03:56:16.356Z,13.40
2022-09-07T03:58:45.707Z,13.37
2022-09-07T04:01:24.948Z,13.37
2022-09-07T04:04:00.050Z,13.35
2022-09-07T04:06:31.642Z,13.34
2022-09-07T04:09:08.961Z,13.31
2022-09-07T04:11:40.762Z,13.28
2022-09-07T04:14:10.621Z,13.26
2022-09-07T04:16:40.650Z,13.26
2022-09-07T04:19:10.899Z,13.26
2022-09-07T04:21:39.189Z,13.24
2022-09-07T04:24:09.132Z,13.24
2022-09-07T04:26:39.111Z,13.22
2022-09-07T04:29:09.795Z,13.21
2022-09-07T04:31:38.968Z,13.20
2022-09-07T04:34:08.578Z,13.21
2022-09-07T04:36:36.936Z,13.21
2022-09-07T04:39:12.941Z,13.23
2022-09-07T04:41:42.933Z,13.27
2022-09-07T04:44:16.607Z,13.31
2022-09-07T04:46:45.911Z,13.35
2022-09-07T04:49:20.945Z,13.41
2022-09-07T04:51:53.872Z,13.46
2022-09-07T04:54:23.311Z,13.52
2022-09-07T04:56:52.098Z,13.62
2022-09-07T04:59:19.988Z,13.74
2022-09-07T05:01:48.875Z,13.89
2022-09-07T05:04:18.118Z,14.07
2022-09-07T05:06:48.129Z,14.24
2022-09-07T05:09:18.040Z,14.42
2022-09-07T05:11:46.750Z,14.61
2022-09-07T05:14:18.351Z,14.77
2022-09-07T05:16:52.061Z,14.96
2022-09-07T05:19:28.058Z,15.17
2022-09-07T05:21:58.793Z,15.39
2022-09-07T05:24:29.542Z,15.62
2022-09-07T05:26:59.297Z,15.82
2022-09-07T05:32:19.427Z,16.27
2022-09-07T05:34:50.850Z,16.50
2022-09-07T05:37:20.270Z,16.74
2022-09-07T05:39:49.196Z,16.95
2022-09-07T05:42:17.576Z,17.12
2022-09-07T05:44:46.038Z,17.32
2022-09-07T05:47:14.627Z,17.52
2022-09-07T05:49:43.349Z,17.73
2022-09-07T05:52:14.158Z,17.97
2022-09-07T05:54:43.600Z,18.21
2022-09-07T05:57:13.290Z,18.44
2022-09-07T05:59:41.877Z,18.66
2022-09-07T06:02:15.541Z,18.87
2022-09-07T06:04:49.090Z,19.10
2022-09-07T06:07:23.049Z,19.36
2022-09-07T06:15:56.375Z,19.80
2022-09-07T06:18:24.875Z,19.76
2022-09-07T06:20:54.358Z,19.81
2022-09-07T06:23:22.625Z,19.93
2022-09-07T06:25:55.695Z,20.00
2022-09-07T06:28:32.075Z,19.96
2022-09-07T06:31:09.621Z,19.97
2022-09-07T06:33:38.128Z,20.08
2022-09-07T06:36:35.902Z,20.10
2022-09-07T06:39:05.276Z,20.25
2022-09-07T06:44:31.469Z,20.65
2022-09-07T06:47:02.518Z,20.85
2022-09-07T06:49:30.721Z,21.01
2022-09-07T06:52:00.221Z,21.19
2022-09-07T06:57:16.892Z,21.54
2022-09-07T06:59:48.012Z,21.65
2022-09-07T07:02:17.120Z,21.72
2022-09-07T07:04:48.213Z,21.79
2022-09-07T07:07:17.288Z,21.82
2022-09-07T07:09:46.613Z,21.85
2022-09-07T07:14:46.171Z,21.96
2022-09-07T07:17:17.053Z,22.01
2022-09-07T07:19:45.672Z,22.07
2022-09-07T07:22:46.926Z,22.09
2022-09-07T07:25:03.690Z,22.09
2022-09-07T07:27:33.422Z,22.09
2022-09-07T07:30:01.447Z,22.09
2022-09-07T07:32:30.369Z,22.06
2022-09-07T07:34:59.442Z,22.03
2022-09-07T07:37:28.313Z,22.05
2022-09-07T07:42:41.743Z,21.89
2022-09-07T07:48:00.886Z,21.90
2022-09-07T07:50:31.850Z,21.93
2022-09-07T07:55:49.548Z,21.97
2022-09-07T07:58:28.296Z,21.95
2022-09-07T08:01:14.208Z,21.96
2022-09-07T08:03:44.285Z,22.01
2022-09-07T08:06:14.961Z,22.10
2022-09-07T08:08:45.949Z,22.20
2022-09-07T08:11:18.004Z,22.24
2022-09-07T08:13:49.702Z,22.25
2022-09-07T08:16:18.498Z,22.29
2022-09-07T08:18:47.208Z,22.38
2022-09-07T08:21:17.709Z,22.46
2022-09-07T08:23:46.416Z,22.49
2022-09-07T08:26:16.668Z,22.49
2022-09-07T08:28:46.951Z,22.55
2022-09-07T08:31:17.621Z,22.53
2022-09-07T08:33:45.834Z,22.52
2022-09-07T08:36:20.042Z,22.58
2022-09-07T08:38:48.931Z,22.58
2022-09-07T08:41:35.382Z,22.56
2022-09-07T08:44:33.229Z,22.67
2022-09-07T08:47:12.314Z,22.76
2022-09-07T08:49:51.852Z,22.79
2022-09-07T08:52:26.617Z,22.86
2022-09-07T08:55:24.134Z,22.94
2022-09-07T08:58:38.557Z,22.98
2022-09-07T09:04:19.334Z,23.03
2022-09-07T09:06:56.027Z,23.10
2022-09-07T09:09:54.771Z,23.21
2022-09-07T09:12:46.569Z,23.34
2022-09-07T09:15:59.686Z,23.37
2022-09-07T09:18:32.573Z,23.44
2022-09-07T09:21:01.825Z,23.50
2022-09-07T09:23:41.626Z,23.52
2022-09-07T09:26:29.599Z,23.58
2022-09-07T09:28:58.457Z,23.70
2022-09-07T09:31:36.168Z,23.81
2022-09-07T09:34:11.333Z,23.88
2022-09-07T09:36:50.070Z,23.88
2022-09-07T09:39:31.177Z,23.91
2022-09-07T09:42:24.250Z,23.97
2022-09-07T09:44:54.360Z,24.11
2022-09-07T09:47:30.572Z,24.26
2022-09-07T09:50:03.813Z,24.35
2022-09-07T09:52:47.741Z,24.46
2022-09-07T09:55:35.858Z,24.55
2022-09-07T10:06:28.019Z,24.97
2022-09-07T10:09:02.117Z,25.06
2022-09-07T10:12:08.946Z,25.14
2022-09-07T10:14:46.810Z,25.20
2022-09-07T10:17:41.825Z,25.23
2022-09-07T10:20:22.367Z,25.27
2022-09-07T10:22:53.294Z,25.35
2022-09-07T10:25:36.520Z,25.43
2022-09-07T10:28:15.663Z,25.52
2022-09-07T10:31:15.758Z,25.58
2022-09-07T10:34:32.532Z,25.65
2022-09-07T10:37:07.711Z,25.72
2022-09-07T10:39:42.072Z,25.80
2022-09-07T10:42:29.358Z,25.86
2022-09-07T10:45:21.044Z,25.96
2022-09-07T10:48:10.451Z,26.00
2022-09-07T10:50:50.300Z,26.01
2022-09-07T10:53:41.689Z,26.02
2022-09-07T10:56:19.833Z,26.01
2022-09-07T10:59:05.346Z,26.03
2022-09-07T11:01:49.774Z,26.08
2022-09-07T11:04:53.064Z,26.04
2022-09-07T11:07:53.651Z,26.11
2022-09-07T11:10:52.685Z,26.20
2022-09-07T11:13:28.381Z,26.30
2022-09-07T11:16:50.578Z,26.44
2022-09-07T11:19:35.987Z,26.57
2022-09-07T11:22:41.790Z,26.63
2022-09-07T11:25:30.714Z,26.66
2022-09-07T11:28:23.284Z,26.58
2022-09-07T11:31:00.427Z,26.57
2022-09-07T11:36:46.370Z,26.66
2022-09-07T11:39:21.133Z,26.69
2022-09-07T11:42:42.820Z,26.68
2022-09-07T11:45:01.006Z,26.70
2022-09-07T11:47:48.150Z,26.73
2022-09-07T11:50:23.786Z,26.70
2022-09-07T11:53:02.570Z,26.72
2022-09-07T11:55:36.585Z,26.76
2022-09-07T11:58:33.018Z,26.78
2022-09-07T12:01:07.114Z,26.79
2022-09-07T12:04:15.181Z,26.77
2022-09-07T12:06:59.529Z,26.74
2022-09-07T12:09:38.370Z,26.73
2022-09-07T12:12:23.862Z,26.69
2022-09-07T12:15:34.975Z,26.67
2022-09-07T12:18:24.515Z,26.72
2022-09-07T12:20:54.894Z,26.74
2022-09-07T12:23:31.707Z,26.76
2022-09-07T12:26:39.044Z,26.75
2022-09-07T12:29:20.433Z,26.81
2022-09-07T12:31:59.813Z,26.82
2022-09-07T12:34:36.006Z,26.83
2022-09-07T12:37:14.382Z,26.86
2022-09-07T12:39:45.176Z,26.89
2022-09-07T12:42:37.462Z,26.88
2022-09-07T12:45:34.428Z,26.93
2022-09-07T12:48:18.835Z,26.92
2022-09-07T12:51:04.407Z,26.91
2022-09-07T12:54:00.393Z,26.93
2022-09-07T12:56:42.749Z,26.89
2022-09-07T12:59:46.639Z,26.85
2022-09-07T13:02:23.120Z,26.80
2022-09-07T13:05:06.121Z,26.69
2022-09-07T13:08:08.006Z,26.61
2022-09-07T13:10:39.727Z,26.58
2022-09-07T13:17:16.079Z,26.64
2022-09-07T13:20:04.779Z,26.67
2022-09-07T13:22:32.900Z,26.65
2022-09-07T13:25:23.901Z,26.65
2022-09-07T13:28:04.099Z,26.70
2022-09-07T13:31:04.751Z,26.78
2022-09-07T13:33:35.436Z,26.82
2022-09-07T13:36:06.206Z,26.69
2022-09-07T13:38:41.684Z,26.61
2022-09-07T13:41:17.757Z,26.60
2022-09-07T13:43:50.777Z,26.57
2022-09-07T13:46:40.227Z,26.57
2022-09-07T13:49:30.533Z,26.64
2022-09-07T13:52:50.298Z,26.72
2022-09-07T13:55:32.076Z,26.81
2022-09-07T13:58:22.555Z,26.85
2022-09-07T14:01:02.856Z,26.83
2022-09-07T14:03:44.014Z,26.81
2022-09-07T14:06:29.888Z,26.80
2022-09-07T14:09:00.072Z,26.81
2022-09-07T14:11:39.531Z,26.84
2022-09-07T14:14:21.428Z,26.85
2022-09-07T14:16:59.765Z,26.82
2022-09-07T14:19:49.646Z,26.83
2022-09-07T14:22:22.018Z,26.81
2022-09-07T14:24:56.449Z,26.66
2022-09-07T14:27:37.416Z,26.48
2022-09-07T14:30:24.987Z,26.32
2022-09-07T14:33:09.215Z,26.19
2022-09-07T14:35:41.790Z,26.07
2022-09-07T14:41:17.752Z,25.92
2022-09-07T14:43:57.701Z,25.86
2022-09-07T14:46:55.126Z,25.79
2022-09-07T14:49:24.836Z,25.70
2022-09-07T14:51:57.884Z,25.61
2022-09-07T14:54:29.571Z,25.54
2022-09-07T14:57:20.825Z,25.48
2022-09-07T14:59:48.823Z,25.45
2022-09-07T15:02:28.601Z,25.45
2022-09-07T15:05:21.037Z,25.44
2022-09-07T15:07:58.796Z,25.41
2022-09-07T15:10:30.701Z,25.38
2022-09-07T15:13:01.366Z,25.34
2022-09-07T15:15:35.189Z,25.34
2022-09-07T15:18:25.831Z,25.35
2022-09-07T15:20:55.187Z,25.36
2022-09-07T15:23:23.490Z,25.34
2022-09-07T15:25:54.028Z,25.32
2022-09-07T15:34:10.189Z,25.26
2022-09-07T15:36:41.452Z,25.24
2022-09-07T15:39:23.000Z,25.22
2022-09-07T15:41:51.720Z,25.20
2022-09-07T15:44:24.997Z,25.17
2022-09-07T15:49:49.517Z,25.12
2022-09-07T15:52:20.453Z,25.09
2022-09-07T15:54:51.010Z,25.08
2022-09-07T16:00:08.058Z,25.10
2022-09-07T16:05:31.772Z,25.20
2022-09-07T16:11:24.227Z,25.31
2022-09-07T16:14:01.721Z,25.31
2022-09-07T16:19:21.944Z,25.28
2022-09-07T16:21:50.253Z,25.26
2022-09-07T16:24:19.873Z,25.23
2022-09-07T16:26:49.465Z,25.17
2022-09-07T16:29:19.937Z,25.08
2022-09-07T16:34:37.118Z,24.86
2022-09-07T16:37:05.330Z,24.75
2022-09-07T16:39:35.739Z,24.66
2022-09-07T16:42:04.993Z,24.59
2022-09-07T16:44:35.172Z,24.51
2022-09-07T16:47:05.087Z,24.40
2022-09-07T16:49:34.300Z,24.32
2022-09-07T16:52:03.156Z,24.24
2022-09-07T16:54:32.645Z,24.15
2022-09-07T16:57:02.481Z,24.07
2022-09-07T16:59:34.711Z,23.99
2022-09-07T17:02:02.687Z,23.92
2022-09-07T17:04:31.024Z,23.84
2022-09-07T17:07:00.750Z,23.76
2022-09-07T17:09:32.939Z,23.68
2022-09-07T17:12:01.225Z,23.60
2022-09-07T17:14:31.215Z,23.52
2022-09-07T17:17:00.199Z,23.43
2022-09-07T17:19:29.435Z,23.34
2022-09-07T17:21:59.853Z,23.26
2022-09-07T17:24:28.422Z,23.16
2022-09-07T17:26:59.417Z,23.05
2022-09-07T17:29:30.598Z,22.93
2022-09-07T17:34:51.373Z,22.72
2022-09-07T17:37:19.764Z,22.62
2022-09-07T17:39:55.267Z,22.53
2022-09-07T17:43:38.872Z,22.45
2022-09-07T17:45:18.113Z,22.38
2022-09-07T17:47:49.605Z,22.32
2022-09-07T17:50:18.300Z,22.25
2022-09-07T17:52:52.707Z,22.18
2022-09-07T17:55:21.273Z,22.11
2022-09-07T17:57:49.764Z,22.05
2022-09-07T18:00:18.453Z,21.99
2022-09-07T18:02:47.880Z,21.93
2022-09-07T18:05:18.348Z,21.88
2022-09-07T18:07:49.327Z,21.81
2022-09-07T18:10:18.661Z,21.75
2022-09-07T18:12:47.934Z,21.70
2022-09-07T18:15:18.614Z,21.64
2022-09-07T18:17:48.443Z,21.58
2022-09-07T18:20:17.145Z,21.54
2022-09-07T18:22:46.234Z,21.48
2022-09-07T18:25:14.531Z,21.44
2022-09-07T18:27:44.394Z,21.39
2022-09-07T18:30:16.171Z,21.34
2022-09-07T18:32:45.196Z,21.30
2022-09-07T18:35:13.155Z,21.25
2022-09-07T18:37:42.926Z,21.20
2022-09-07T18:40:12.422Z,21.14
2022-09-07T18:42:42.631Z,21.09
2022-09-07T18:48:00.372Z,21.02
2022-09-07T18:50:30.163Z,20.98
2022-09-07T18:53:07.294Z,20.95
2022-09-07T18:55:44.192Z,20.91
2022-09-07T18:58:13.013Z,20.87
2022-09-07T19:00:47.686Z,20.84
2022-09-07T19:03:17.289Z,20.80
2022-09-07T19:05:50.351Z,20.78
2022-09-07T19:08:19.448Z,20.75
2022-09-07T19:10:47.734Z,20.72
2022-09-07T19:13:16.291Z,20.69
2022-09-07T19:15:44.602Z,20.65
2022-09-07T19:18:14.430Z,20.61
2022-09-07T19:20:44.875Z,20.57
2022-09-07T19:23:13.492Z,20.53
2022-09-07T19:25:42.980Z,20.49
2022-09-07T19:28:11.178Z,20.46
2022-09-07T19:30:39.554Z,20.42
2022-09-07T19:33:14.678Z,20.39
2022-09-07T19:35:44.947Z,20.35
2022-09-07T19:38:14.639Z,20.31
2022-09-07T19:40:42.650Z,20.28
2022-09-07T19:43:11.688Z,20.24
2022-09-07T19:45:41.261Z,20.20
2022-09-07T19:48:09.090Z,20.15
2022-09-07T19:50:39.080Z,20.10
2022-09-07T19:53:10.474Z,20.06
2022-09-07T19:55:39.848Z,20.03
2022-09-07T19:58:08.920Z,20.00
2022-09-07T20:00:40.705Z,19.98
2022-09-07T20:03:11.352Z,19.95
2022-09-07T20:05:42.642Z,19.90
2022-09-07T20:08:10.602Z,19.87
2022-09-07T20:10:38.673Z,19.84
2022-09-07T20:13:07.659Z,19.80
2022-09-07T20:15:41.248Z,19.76
2022-09-07T20:18:09.087Z,19.72
2022-09-07T20:20:41.050Z,19.67
2022-09-07T20:23:08.983Z,19.62
2022-09-07T20:25:36.851Z,19.57
2022-09-07T20:28:04.800Z,19.53
2022-09-07T20:30:34.314Z,19.49
2022-09-07T20:33:04.066Z,19.46
2022-09-07T20:35:32.318Z,19.42
2022-09-07T20:38:02.783Z,19.39
2022-09-07T20:40:32.552Z,19.35
2022-09-07T20:43:00.554Z,19.32
2022-09-07T20:45:31.885Z,19.29
2022-09-07T20:48:01.008Z,19.27
2022-09-07T20:50:28.892Z,19.25
2022-09-07T20:52:56.720Z,19.23
2022-09-07T20:55:24.835Z,19.21
2022-09-07T20:57:53.718Z,19.20
2022-09-07T21:00:22.232Z,19.17
2022-09-07T21:02:52.051Z,19.12
2022-09-07T21:05:21.606Z,19.09
2022-09-07T21:07:52.811Z,19.07
2022-09-07T21:10:20.635Z,19.03
2022-09-07T21:12:48.482Z,19.00
2022-09-07T21:15:17.097Z,18.97
2022-09-07T21:17:45.358Z,18.95
2022-09-07T21:20:13.990Z,18.94
2022-09-07T21:22:42.848Z,18.92
2022-09-07T21:25:10.853Z,18.91
2022-09-07T21:27:38.998Z,18.88
2022-09-07T21:30:10.607Z,18.86
2022-09-07T21:32:38.628Z,18.85
2022-09-07T21:35:08.287Z,18.84
2022-09-07T21:37:37.556Z,18.84
2022-09-07T21:40:06.701Z,18.85
2022-09-07T21:42:35.021Z,18.86
2022-09-07T21:45:04.854Z,18.87
2022-09-07T21:47:33.802Z,18.88
2022-09-07T21:50:01.827Z,18.89
2022-09-07T21:52:29.683Z,18.91
2022-09-07T21:54:57.986Z,18.92
2022-09-07T21:57:26.358Z,18.94
2022-09-07T21:59:54.841Z,18.95
2022-09-07T22:02:23.032Z,18.95
2022-09-07T22:04:51.846Z,18.96
2022-09-07T22:07:20.617Z,18.97
2022-09-07T22:09:48.836Z,18.98
2022-09-07T22:12:18.604Z,18.99
2022-09-07T22:14:49.913Z,19.00
2022-09-07T22:17:17.792Z,19.00
2022-09-07T22:19:45.856Z,19.01
2022-09-07T22:22:16.733Z,19.01
2022-09-07T22:24:44.758Z,19.01
2022-09-07T22:27:12.976Z,19.03
2022-09-07T22:29:41.092Z,19.05
2022-09-07T22:32:09.024Z,19.07
2022-09-07T22:34:37.010Z,19.08
2022-09-07T22:37:04.890Z,19.09
2022-09-07T22:39:33.028Z,19.10
2022-09-07T22:42:00.800Z,19.12
2022-09-07T22:44:30.473Z,19.13
2022-09-07T22:46:58.639Z,19.15
2022-09-07T22:49:26.632Z,19.16
2022-09-07T22:51:54.778Z,19.18
2022-09-07T22:54:23.515Z,19.20
2022-09-07T22:56:51.406Z,19.21
2022-09-07T22:59:21.096Z,19.22
2022-09-07T23:01:50.691Z,19.24
2022-09-07T23:04:21.827Z,19.25
2022-09-07T23:06:50.841Z,19.26
2022-09-07T23:09:19.251Z,19.27
2022-09-07T23:11:48.398Z,19.27
2022-09-07T23:14:19.817Z,19.27
2022-09-07T23:16:51.110Z,19.26
2022-09-07T23:19:19.885Z,19.23
2022-09-07T23:21:48.216Z,19.19
2022-09-07T23:24:18.783Z,19.16
2022-09-07T23:26:47.330Z,19.14
2022-09-07T23:29:17.182Z,19.11
2022-09-07T23:31:47.206Z,19.08
2022-09-07T23:34:15.223Z,19.05
2022-09-07T23:36:43.196Z,19.03
2022-09-07T23:39:12.747Z,18.99
2022-09-07T23:41:40.543Z,18.96
2022-09-07T23:44:08.288Z,18.91
2022-09-07T23:46:37.974Z,18.88
2022-09-07T23:49:08.202Z,18.84
2022-09-07T23:51:37.465Z,18.81
2022-09-07T23:54:13.792Z,18.75
2022-09-07T23:56:42.266Z,18.70
2022-09-07T23:59:11.144Z,18.67
